Time;durP1;ratioP1;P1;durP2;ratioP2;P2;SDS_P1;SDS_P2;PMS_P1;PMS_P2;Temp;Humidity;BMP_temperature;BMP_pressure;BME280_temperature;BME280_humidity;BME280_pressure;Samples;Min_cycle;Max_cycle;Signal;HPM_P1;HPM_P2
2024/03/29 01:43:55;;;;;;;1.23;0.43;;;11.40;95.90;;;;;;5070565;28;20205;-60
2024/03/29 01:46:24;;;;;;;1.13;0.70;;;11.20;96.20;;;;;;5071651;28;20609;-60
2024/03/29 01:48:52;;;;;;;1.07;0.73;;;11.10;96.40;;;;;;5071758;28;20642;-60
2024/03/29 01:51:20;;;;;;;0.63;0.40;;;10.90;96.70;;;;;;5071805;28;20616;-60
2024/03/29 01:53:48;;;;;;;0.70;0.53;;;10.80;97.00;;;;;;5071933;28;20224;-59
2024/03/29 01:56:16;;;;;;;2.33;0.80;;;10.60;97.20;;;;;;5071921;28;20237;-59
2024/03/29 01:58:44;;;;;;;0.97;0.40;;;10.40;97.50;;;;;;5071500;28;20262;-60
2024/03/29 02:01:13;;;;;;;0.60;0.60;;;10.20;97.70;;;;;;5071718;28;20384;-60
2024/03/29 02:03:41;;;;;;;1.90;0.93;;;10.20;98.10;;;;;;5071874;28;20628;-60
2024/03/29 02:06:10;;;;;;;0.87;0.60;;;10.20;98.20;;;;;;5071770;28;20255;-59
2024/03/29 02:08:37;;;;;;;0.90;0.50;;;10.10;98.30;;;;;;5071522;28;20212;-60
2024/03/29 02:11:04;;;;;;;0.83;0.50;;;10.20;98.30;;;;;;5071704;28;20251;-58
2024/03/29 02:13:31;;;;;;;0.87;0.40;;;10.20;98.30;;;;;;5071526;28;20293;-60
2024/03/29 02:15:58;;;;;;;1.30;0.83;;;10.30;98.40;;;;;;5074250;28;20224;-60
2024/03/29 02:18:27;;;;;;;0.63;0.43;;;10.30;98.20;;;;;;5075425;28;20212;-60
2024/03/29 02:20:52;;;;;;;1.33;0.53;;;10.20;98.10;;;;;;5075412;28;20211;-60
2024/03/29 02:23:22;;;;;;;1.43;0.63;;;10.20;97.90;;;;;;5075314;28;20196;-59
2024/03/29 02:25:50;;;;;;;1.03;0.50;;;10.20;98.00;;;;;;5075143;28;20229;-59
2024/03/29 02:28:17;;;;;;;1.27;0.43;;;10.30;97.30;;;;;;5074918;28;20227;-59
2024/03/29 02:30:44;;;;;;;0.70;0.60;;;10.40;97.60;;;;;;5075418;28;20209;-59
2024/03/29 02:33:10;;;;;;;0.60;0.40;;;10.40;97.60;;;;;;5075100;28;20217;-60
2024/03/29 02:35:37;;;;;;;0.83;0.60;;;10.40;97.00;;;;;;5075054;28;20236;-59
2024/03/29 02:38:04;;;;;;;0.70;0.53;;;10.50;97.10;;;;;;5074999;28;20235;-60
2024/03/29 02:40:31;;;;;;;0.43;0.37;;;10.50;96.70;;;;;;5075017;28;20208;-60
2024/03/29 02:42:59;;;;;;;0.70;0.40;;;10.60;96.50;;;;;;5075327;28;20220;-59
2024/03/29 02:45:25;;;;;;;2.17;0.53;;;10.60;96.30;;;;;;5074964;28;20225;-60
2024/03/29 02:47:52;;;;;;;0.70;0.53;;;10.70;96.00;;;;;;5074709;28;20204;-59
2024/03/29 02:50:18;;;;;;;0.67;0.20;;;10.80;96.00;;;;;;5074864;28;20699;-59
2024/03/29 02:52:44;;;;;;;0.20;0.20;;;10.90;95.50;;;;;;5074623;28;20209;-59
2024/03/29 02:55:10;;;;;;;1.47;0.40;;;10.90;95.40;;;;;;5074520;28;20220;-59
2024/03/29 02:57:37;;;;;;;0.50;0.40;;;11.00;95.40;;;;;;5074289;28;20704;-59
2024/03/29 03:00:05;;;;;;;0.63;0.33;;;11.00;95.70;;;;;;5074594;28;20686;-59
2024/03/29 03:02:32;;;;;;;0.33;0.33;;;11.00;96.20;;;;;;5074637;28;20287;-59
2024/03/29 03:04:59;;;;;;;0.33;0.30;;;10.90;95.80;;;;;;5074620;28;20205;-59
2024/03/29 03:12:56;;;;;;;0.60;0.60;;;11.10;96.60;;;;;;5065008;28;20286;-59
2024/03/29 03:15:24;;;;;;;1.20;0.50;;;11.10;96.60;;;;;;5074326;28;20232;-59
2024/03/29 03:17:50;;;;;;;0.80;0.40;;;11.20;96.60;;;;;;5074252;28;20209;-59
2024/03/29 03:20:17;;;;;;;0.67;0.60;;;11.20;96.50;;;;;;5074281;28;20205;-59
2024/03/29 03:22:43;;;;;;;1.83;1.10;;;11.10;96.60;;;;;;5074172;28;20291;-60
2024/03/29 03:25:09;;;;;;;2.20;1.10;;;11.10;96.50;;;;;;5073999;28;20280;-60
2024/03/29 03:27:35;;;;;;;2.33;1.00;;;11.00;96.00;;;;;;5074084;28;20217;-60
2024/03/29 03:30:02;;;;;;;0.80;0.53;;;11.00;96.20;;;;;;5074244;28;20619;-60
2024/03/29 03:32:29;;;;;;;1.27;0.60;;;10.90;95.70;;;;;;5073958;28;20216;-60
2024/03/29 03:34:55;;;;;;;2.23;0.27;;;11.00;94.20;;;;;;5073773;28;20225;-63
2024/03/29 03:37:21;;;;;;;0.50;0.40;;;11.00;93.50;;;;;;5073931;28;20282;-59
2024/03/29 03:39:48;;;;;;;0.43;0.37;;;11.20;92.90;;;;;;5074003;28;20205;-60
2024/03/29 03:42:13;;;;;;;0.77;0.30;;;11.40;92.70;;;;;;5074076;28;20212;-60
2024/03/29 03:47:05;;;;;;;0.30;0.20;;;11.70;91.50;;;;;;5088900;22;20279;-55
2024/03/29 03:49:32;;;;;;;0.40;0.30;;;11.80;91.30;;;;;;5073583;28;20228;-55
2024/03/29 03:51:59;;;;;;;0.50;0.33;;;12.00;91.30;;;;;;5073316;28;20216;-55
2024/03/29 03:54:25;;;;;;;0.27;0.27;;;12.10;91.20;;;;;;5073498;28;20213;-56
2024/03/29 03:56:51;;;;;;;0.23;0.23;;;12.20;91.50;;;;;;5091355;28;20227;-55
2024/03/29 03:59:17;;;;;;;0.80;0.50;;;12.20;92.40;;;;;;5093475;28;20208;-55
2024/03/29 04:01:44;;;;;;;1.17;0.67;;;12.20;93.00;;;;;;5093504;28;20215;-55
2024/03/29 04:04:09;;;;;;;0.90;0.50;;;12.00;93.80;;;;;;5093265;28;20693;-56
2024/03/29 04:06:37;;;;;;;1.13;0.40;;;11.70;94.60;;;;;;5093372;28;20224;-56
2024/03/29 04:09:03;;;;;;;2.13;0.53;;;11.60;94.80;;;;;;5093329;28;20204;-55
2024/03/29 04:11:30;;;;;;;0.50;0.40;;;11.60;95.00;;;;;;5093635;28;20193;-56
2024/03/29 04:13:56;;;;;;;1.03;0.40;;;11.60;95.40;;;;;;5093356;28;20282;-55
2024/03/29 04:16:22;;;;;;;0.93;0.60;;;11.60;95.50;;;;;;5092693;28;20644;-56
2024/03/29 04:18:48;;;;;;;0.97;0.50;;;11.80;95.40;;;;;;5093048;28;20212;-55
2024/03/29 04:21:15;;;;;;;0.70;0.30;;;11.80;94.90;;;;;;5093226;28;20200;-56
2024/03/29 04:23:41;;;;;;;0.87;0.50;;;11.90;94.50;;;;;;5093037;28;20204;-56
2024/03/29 04:26:08;;;;;;;1.13;0.30;;;11.80;93.80;;;;;;5092753;28;20216;-55
2024/03/29 04:28:34;;;;;;;0.30;0.30;;;11.70;93.00;;;;;;5092730;28;20208;-55
2024/03/29 04:31:01;;;;;;;0.57;0.47;;;11.70;92.80;;;;;;5092798;28;20215;-55
2024/03/29 04:33:27;;;;;;;1.90;0.40;;;11.60;92.90;;;;;;5092610;28;20204;-54
2024/03/29 04:35:55;;;;;;;1.33;0.40;;;11.60;92.70;;;;;;5092709;28;20286;-54
2024/03/29 04:38:22;;;;;;;0.50;0.30;;;11.60;92.70;;;;;;5091964;28;20211;-54
2024/03/29 04:40:52;;;;;;;1.57;0.30;;;11.50;92.90;;;;;;5092861;28;20208;-55
2024/03/29 04:43:19;;;;;;;0.73;0.37;;;11.60;92.70;;;;;;5092660;28;20212;-55
2024/03/29 04:45:46;;;;;;;0.77;0.43;;;11.60;92.70;;;;;;5092660;28;20281;-54
2024/03/29 04:48:13;;;;;;;0.53;0.37;;;11.60;92.70;;;;;;5092576;28;20211;-54
2024/03/29 04:50:40;;;;;;;2.43;0.63;;;11.50;92.70;;;;;;5092575;28;20200;-55
2024/03/29 04:53:08;;;;;;;1.13;0.43;;;11.50;92.60;;;;;;5092369;28;20204;-56
2024/03/29 04:55:34;;;;;;;1.53;0.47;;;11.60;92.70;;;;;;5092292;28;20228;-55
2024/03/29 04:58:02;;;;;;;0.30;0.30;;;11.60;92.60;;;;;;5092188;28;20205;-55
2024/03/29 05:00:28;;;;;;;0.90;0.50;;;11.70;92.50;;;;;;5092330;28;20203;-55
2024/03/29 05:02:54;;;;;;;1.30;0.50;;;11.80;91.90;;;;;;5092477;28;20204;-55
2024/03/29 05:05:21;;;;;;;0.50;0.47;;;11.80;92.20;;;;;;5092213;28;20227;-55
2024/03/29 05:07:48;;;;;;;0.47;0.37;;;11.70;91.90;;;;;;5091991;28;20204;-55
2024/03/29 05:10:16;;;;;;;0.87;0.47;;;11.50;92.00;;;;;;5092302;28;20212;-55
2024/03/29 05:12:43;;;;;;;0.90;0.60;;;11.40;92.70;;;;;;5092146;28;20212;-55
2024/03/29 05:15:11;;;;;;;0.87;0.77;;;11.30;92.50;;;;;;5092177;28;20232;-55
2024/03/29 05:17:38;;;;;;;0.73;0.50;;;11.30;92.70;;;;;;5092175;28;20655;-55
2024/03/29 05:20:05;;;;;;;0.83;0.40;;;11.30;92.80;;;;;;5092171;28;20230;-56
2024/03/29 05:22:32;;;;;;;0.67;0.30;;;11.30;92.10;;;;;;5092490;28;20250;-56
2024/03/29 05:24:58;;;;;;;1.93;0.70;;;11.40;91.80;;;;;;5092419;28;20234;-55
2024/03/29 05:27:25;;;;;;;0.90;0.60;;;11.50;91.80;;;;;;5083698;28;20204;-54
2024/03/29 05:29:52;;;;;;;0.87;0.70;;;11.60;91.80;;;;;;5092531;28;20269;-55
2024/03/29 05:32:20;;;;;;;1.33;0.60;;;11.70;91.90;;;;;;5092305;28;20212;-55
2024/03/29 05:34:46;;;;;;;0.80;0.60;;;11.80;91.80;;;;;;5091761;28;20606;-56
2024/03/29 05:37:15;;;;;;;0.87;0.57;;;11.80;91.80;;;;;;5091527;28;20208;-56
2024/03/29 05:39:42;;;;;;;1.27;0.80;;;11.80;91.90;;;;;;5091734;28;20617;-56
2024/03/29 05:42:08;;;;;;;2.37;0.70;;;11.80;91.90;;;;;;5091552;28;20681;-55
2024/03/29 05:44:36;;;;;;;0.47;0.47;;;11.90;91.50;;;;;;5091682;28;20624;-54
2024/03/29 05:47:04;;;;;;;1.50;0.60;;;12.00;91.60;;;;;;5091204;28;20236;-55
2024/03/29 05:49:32;;;;;;;0.70;0.50;;;12.00;91.30;;;;;;5094068;28;20200;-55
2024/03/29 05:51:59;;;;;;;1.47;0.57;;;12.00;91.50;;;;;;5095839;28;20214;-55
2024/03/29 05:54:26;;;;;;;0.60;0.53;;;12.10;91.50;;;;;;5095913;28;20294;-58
2024/03/29 05:56:52;;;;;;;1.03;0.70;;;12.20;91.50;;;;;;5095851;28;20231;-56
2024/03/29 05:59:19;;;;;;;1.10;0.60;;;12.30;91.30;;;;;;5095971;28;20595;-56
2024/03/29 06:01:46;;;;;;;0.90;0.43;;;12.40;91.10;;;;;;5096154;28;20204;-55
2024/03/29 06:04:16;;;;;;;3.00;2.27;;;12.50;90.80;;;;;;5095608;28;20613;-56
2024/03/29 06:06:44;;;;;;;1.60;1.10;;;12.60;91.00;;;;;;5095382;28;20231;-56
2024/03/29 06:09:10;;;;;;;0.97;0.80;;;12.60;90.90;;;;;;5095390;28;20253;-57
2024/03/29 06:11:38;;;;;;;0.57;0.47;;;12.60;90.70;;;;;;5095890;28;20200;-56
2024/03/29 06:19:32;;;;;;;0.30;0.30;;;12.90;90.40;;;;;;5088013;28;20641;-57
2024/03/29 06:22:00;;;;;;;0.63;0.50;;;12.90;90.30;;;;;;5095653;28;20295;-57
2024/03/29 06:24:27;;;;;;;1.20;0.30;;;13.00;89.60;;;;;;5095523;28;20200;-57
2024/03/29 06:26:54;;;;;;;0.53;0.40;;;13.00;87.80;;;;;;5094878;28;20800;-57
2024/03/29 06:29:20;;;;;;;1.03;0.60;;;13.10;87.40;;;;;;5095200;28;20261;-57
2024/03/29 06:31:47;;;;;;;1.90;0.70;;;13.00;87.20;;;;;;5095354;28;20207;-57
2024/03/29 06:34:13;;;;;;;0.70;0.60;;;13.10;87.90;;;;;;5094979;28;20204;-57
2024/03/29 06:36:40;;;;;;;1.27;0.57;;;13.10;87.70;;;;;;5094853;28;20228;-56
2024/03/29 06:39:08;;;;;;;0.50;0.50;;;13.10;87.60;;;;;;5095136;28;20211;-57
2024/03/29 06:41:35;;;;;;;0.60;0.40;;;13.20;87.60;;;;;;5094971;28;20295;-55
2024/03/29 06:44:02;;;;;;;1.10;0.30;;;13.30;87.40;;;;;;5095058;28;20387;-57
2024/03/29 06:46:28;;;;;;;0.50;0.50;;;13.20;87.40;;;;;;5086048;28;20311;-56
2024/03/29 06:48:55;;;;;;;0.50;0.50;;;13.10;87.50;;;;;;5094966;28;20592;-56
2024/03/29 06:51:22;;;;;;;0.40;0.40;;;13.00;87.70;;;;;;5094843;28;20585;-56
2024/03/29 06:53:49;;;;;;;1.50;0.70;;;13.10;88.10;;;;;;5094813;28;20656;-56
2024/03/29 06:56:17;;;;;;;1.10;0.70;;;13.20;88.80;;;;;;5094673;28;20228;-56
2024/03/29 06:58:43;;;;;;;1.50;0.57;;;13.20;88.50;;;;;;5095053;28;20209;-57
2024/03/29 07:01:10;;;;;;;0.77;0.40;;;13.30;88.90;;;;;;5094129;28;20205;-56
2024/03/29 07:03:37;;;;;;;1.60;0.60;;;13.60;89.50;;;;;;5095162;28;20208;-56
2024/03/29 07:06:04;;;;;;;0.90;0.50;;;13.80;89.70;;;;;;5095161;28;20220;-56
2024/03/29 07:08:30;;;;;;;1.23;0.57;;;13.80;89.30;;;;;;5094917;28;20204;-56
2024/03/29 07:11:00;;;;;;;1.53;0.60;;;13.90;89.50;;;;;;5094609;28;20216;-56
2024/03/29 07:13:31;;;;;;;0.20;0.20;;;13.90;89.70;;;;;;5094249;28;20615;-55
2024/03/29 07:15:58;;;;;;;0.77;0.50;;;13.80;89.70;;;;;;5094136;28;20228;-56
2024/03/29 07:18:24;;;;;;;0.50;0.37;;;13.90;89.70;;;;;;5093948;28;20564;-57
2024/03/29 07:20:51;;;;;;;0.40;0.40;;;14.00;89.50;;;;;;5094137;28;20204;-56
2024/03/29 07:23:18;;;;;;;0.87;0.50;;;14.00;89.50;;;;;;5093871;28;20239;-56
2024/03/29 07:25:45;;;;;;;2.13;0.57;;;14.30;89.60;;;;;;5093855;28;20224;-57
2024/03/29 07:28:14;;;;;;;0.43;0.40;;;14.30;89.30;;;;;;5093456;28;20205;-56
2024/03/29 07:30:44;;;;;;;0.70;0.50;;;14.20;89.40;;;;;;5094166;28;20208;-56
2024/03/29 07:33:10;;;;;;;1.30;0.50;;;13.90;90.10;;;;;;5093753;28;20204;-56
2024/03/29 07:35:41;;;;;;;0.67;0.57;;;13.80;90.40;;;;;;5093916;28;20235;-56
2024/03/29 07:38:07;;;;;;;1.50;0.50;;;13.60;90.60;;;;;;5093717;28;20212;-55
2024/03/29 07:40:34;;;;;;;0.93;0.67;;;13.30;91.00;;;;;;5093590;28;20677;-56
2024/03/29 07:43:03;;;;;;;0.50;0.43;;;13.20;91.50;;;;;;5093439;28;20200;-56
2024/03/29 07:45:29;;;;;;;1.00;0.60;;;13.20;92.30;;;;;;5093723;28;20374;-56
2024/03/29 07:47:58;;;;;;;0.83;0.60;;;13.20;93.10;;;;;;5093282;28;20633;-56
2024/03/29 07:50:25;;;;;;;1.33;0.50;;;13.20;94.70;;;;;;5093373;28;20212;-56
2024/03/29 07:52:51;;;;;;;1.63;1.03;;;13.30;96.80;;;;;;5093328;28;20210;-56
2024/03/29 07:55:18;;;;;;;2.07;0.97;;;13.10;98.70;;;;;;5093021;28;20745;-56
2024/03/29 07:57:46;;;;;;;2.30;0.83;;;12.90;99.90;;;;;;5093383;28;20291;-56
2024/03/29 08:00:14;;;;;;;1.77;0.80;;;12.50;99.90;;;;;;5093324;28;20282;-56
2024/03/29 08:02:40;;;;;;;1.20;1.00;;;12.10;99.90;;;;;;5093349;28;20674;-56
2024/03/29 08:05:09;;;;;;;2.10;1.30;;;11.90;99.90;;;;;;5093042;28;20250;-56
2024/03/29 08:07:36;;;;;;;1.17;0.80;;;11.90;99.90;;;;;;5092898;28;20671;-57
2024/03/29 08:10:03;;;;;;;1.23;0.90;;;11.90;99.90;;;;;;5092992;28;20208;-56
2024/03/29 08:12:29;;;;;;;3.40;1.90;;;11.90;99.90;;;;;;5092083;28;20291;-58
2024/03/29 08:14:56;;;;;;;4.43;2.23;;;11.90;99.90;;;;;;5093135;28;20204;-56
2024/03/29 08:17:22;;;;;;;5.27;1.70;;;12.00;99.90;;;;;;5092791;28;20208;-55
2024/03/29 08:19:49;;;;;;;1.27;1.10;;;12.10;99.90;;;;;;5093164;28;20212;-55
2024/03/29 08:22:17;;;;;;;3.07;1.20;;;12.10;99.90;;;;;;5092921;28;20253;-56
2024/03/29 08:24:44;;;;;;;3.07;1.40;;;12.10;99.90;;;;;;5092829;28;20257;-55
2024/03/29 08:27:11;;;;;;;4.13;1.40;;;12.40;99.90;;;;;;5092643;28;20307;-55
2024/03/29 08:29:37;;;;;;;3.20;1.50;;;12.40;99.90;;;;;;5092806;28;20669;-56
2024/03/29 08:32:06;;;;;;;2.00;1.40;;;12.50;99.90;;;;;;5092812;28;20316;-58
2024/03/29 08:34:34;;;;;;;3.00;1.30;;;12.50;99.90;;;;;;5092709;28;20212;-54
2024/03/29 08:37:01;;;;;;;2.97;1.80;;;12.50;99.90;;;;;;5092118;28;20224;-56
2024/03/29 08:39:29;;;;;;;2.93;1.40;;;12.50;99.90;;;;;;5092687;28;20196;-56
2024/03/29 08:41:56;;;;;;;3.33;1.50;;;12.50;99.90;;;;;;5092295;28;20679;-56
2024/03/29 08:44:24;;;;;;;3.80;1.57;;;12.50;99.90;;;;;;5092374;28;20212;-55
2024/03/29 08:46:51;;;;;;;24.17;13.37;;;12.40;99.90;;;;;;5092065;28;20231;-54
2024/03/29 08:49:18;;;;;;;6.23;3.30;;;12.20;99.90;;;;;;5092255;28;20204;-55
2024/03/29 08:51:44;;;;;;;5.43;4.83;;;12.20;99.90;;;;;;5092396;28;20218;-56
2024/03/29 08:54:11;;;;;;;5.07;3.27;;;12.20;99.90;;;;;;5092409;28;20204;-54
2024/03/29 08:56:40;;;;;;;3.90;3.17;;;12.20;99.90;;;;;;5092054;28;20293;-55
2024/03/29 08:59:09;;;;;;;2.17;1.63;;;12.30;99.90;;;;;;5092615;28;20206;-55
2024/03/29 09:01:37;;;;;;;2.73;1.67;;;12.20;99.90;;;;;;5092176;28;20214;-55
2024/03/29 09:04:07;;;;;;;2.87;1.50;;;12.40;99.90;;;;;;5092114;28;20211;-56
2024/03/29 09:06:34;;;;;;;2.13;1.70;;;12.50;99.90;;;;;;5091849;28;20778;-56
2024/03/29 09:09:01;;;;;;;2.00;1.80;;;12.60;99.90;;;;;;5092161;28;20212;-57
2024/03/29 09:11:27;;;;;;;2.73;1.70;;;12.80;99.90;;;;;;5092064;28;20208;-56
2024/03/29 09:13:56;;;;;;;3.80;2.23;;;13.00;99.90;;;;;;5092048;28;20701;-56
2024/03/29 09:16:23;;;;;;;2.63;1.97;;;13.20;99.90;;;;;;5091717;28;20281;-52
2024/03/29 09:18:49;;;;;;;2.40;1.60;;;13.40;99.90;;;;;;5091904;28;20204;-55
2024/03/29 09:21:16;;;;;;;4.90;1.43;;;13.50;99.90;;;;;;5092016;28;20233;-56
2024/03/29 09:23:43;;;;;;;4.93;1.00;;;13.30;99.90;;;;;;5091758;28;20204;-60
2024/03/29 09:26:09;;;;;;;2.03;0.77;;;13.00;99.90;;;;;;5091760;28;20220;-59
2024/03/29 09:28:36;;;;;;;1.87;1.10;;;13.00;99.90;;;;;;5091563;28;20212;-59
2024/03/29 09:31:05;;;;;;;2.00;1.30;;;13.20;99.90;;;;;;5091845;28;20230;-60
2024/03/29 09:33:31;;;;;;;2.50;2.00;;;13.30;99.90;;;;;;5091785;28;20196;-57
2024/03/29 09:35:59;;;;;;;2.97;1.43;;;13.50;99.90;;;;;;5092013;28;20228;-57
2024/03/29 09:38:26;;;;;;;3.22;1.38;;;13.60;99.90;;;;;;5087242;28;20482;-55
2024/03/29 09:41:01;;;;;;;2.87;1.23;;;13.80;99.90;;;;;;5091617;28;20692;-58
2024/03/29 09:43:29;;;;;;;2.20;1.00;;;14.00;99.90;;;;;;5091550;28;20215;-60
2024/03/29 09:45:57;;;;;;;1.80;1.20;;;14.10;99.90;;;;;;5099123;22;20237;-59
2024/03/29 09:48:26;;;;;;;2.90;1.27;;;14.10;99.90;;;;;;5038590;28;20213;-59
2024/03/29 09:50:56;;;;;;;3.87;1.70;;;14.10;99.90;;;;;;5051319;28;20292;-59
2024/03/29 09:53:24;;;;;;;3.03;1.77;;;14.00;99.90;;;;;;5051333;28;20209;-59
2024/03/29 09:55:52;;;;;;;4.13;1.20;;;13.80;99.90;;;;;;5051290;28;20229;-62
2024/03/29 09:58:18;;;;;;;2.57;1.60;;;13.80;99.90;;;;;;5050872;28;20213;-61
2024/03/29 10:00:45;;;;;;;2.00;1.27;;;13.80;99.90;;;;;;5051562;28;20202;-60
2024/03/29 10:03:13;;;;;;;2.67;2.10;;;13.70;99.90;;;;;;5051118;28;20206;-60
2024/03/29 10:05:41;;;;;;;2.97;2.13;;;13.80;99.90;;;;;;5051314;28;20229;-60
2024/03/29 10:08:08;;;;;;;3.23;2.30;;;13.70;99.90;;;;;;5051080;28;20212;-61
2024/03/29 10:10:35;;;;;;;2.20;1.90;;;13.70;99.90;;;;;;5051227;28;20209;-60
2024/03/29 10:13:02;;;;;;;2.50;2.03;;;13.70;99.90;;;;;;5051164;28;20209;-60
2024/03/29 10:15:33;;;;;;;3.53;2.07;;;13.70;99.90;;;;;;5050945;28;20241;-60
2024/03/29 10:18:00;;;;;;;2.07;1.70;;;13.80;99.90;;;;;;5051039;28;20297;-62
2024/03/29 10:20:27;;;;;;;2.47;1.80;;;13.90;99.90;;;;;;5051120;28;20209;-60
2024/03/29 10:23:01;;;;;;;1.93;1.60;;;14.00;99.90;;;;;;5051252;28;20201;-59
2024/03/29 10:25:32;;;;;;;2.23;1.73;;;14.10;99.90;;;;;;5050935;28;20256;-59
2024/03/29 10:27:59;;;;;;;4.70;1.57;;;14.30;99.90;;;;;;5050634;28;20659;-58
2024/03/29 10:30:26;;;;;;;2.80;1.87;;;14.60;99.90;;;;;;5050959;28;20566;-59
2024/03/29 10:32:53;;;;;;;2.63;1.67;;;14.80;99.90;;;;;;5051208;28;20244;-58
2024/03/29 10:35:20;;;;;;;1.77;1.40;;;15.00;99.90;;;;;;5051070;28;20741;-58
2024/03/29 10:37:47;;;;;;;2.27;1.53;;;15.20;99.90;;;;;;5054521;28;20225;-58
2024/03/29 10:40:17;;;;;;;3.13;1.80;;;15.50;99.90;;;;;;5054484;28;20656;-58
2024/03/29 10:42:44;;;;;;;4.10;2.20;;;15.60;99.90;;;;;;5054903;28;20209;-59
2024/03/29 10:45:11;;;;;;;8.20;5.00;;;15.70;99.90;;;;;;5054435;28;20655;-57
2024/03/29 10:47:41;;;;;;;4.93;1.80;;;15.80;99.90;;;;;;5054359;28;20210;-58
2024/03/29 10:50:10;;;;;;;1.83;1.23;;;16.00;99.90;;;;;;5054393;28;20210;-58
2024/03/29 10:52:38;;;;;;;1.57;1.23;;;15.90;99.90;;;;;;5038366;28;20259;-59
2024/03/29 10:55:08;;;;;;;2.00;1.70;;;15.80;99.90;;;;;;5054665;28;20206;-58
2024/03/29 10:57:41;;;;;;;2.80;1.43;;;15.80;99.90;;;;;;5053920;28;20221;-58
2024/03/29 11:00:14;;;;;;;2.80;1.60;;;15.70;99.90;;;;;;5054533;28;20217;-59
2024/03/29 11:02:50;;;;;;;4.00;3.70;;;15.60;99.90;;;;;;5054245;28;20209;-58
2024/03/29 11:05:17;;;;;;;1.50;1.40;;;15.60;99.90;;;;;;5053649;28;20697;-58
2024/03/29 11:07:46;;;;;;;4.83;1.20;;;15.60;99.90;;;;;;5054031;28;20204;-59
2024/03/29 11:10:16;;;;;;;1.87;1.00;;;15.60;99.90;;;;;;5054050;28;20210;-58
2024/03/29 11:12:52;;;;;;;1.42;1.05;;;15.60;99.90;;;;;;5054598;28;20233;-59
2024/03/29 11:15:27;;;;;;;2.70;1.30;;;15.60;99.90;;;;;;5053722;28;20256;-59
2024/03/29 11:17:55;;;;;;;1.53;1.40;;;15.60;99.90;;;;;;5053626;28;20256;-59
2024/03/29 11:20:27;;;;;;;1.10;1.00;;;15.80;99.90;;;;;;5053945;28;20217;-59
2024/03/29 11:22:55;;;;;;;2.13;1.27;;;16.00;99.90;;;;;;5053937;28;20304;-58
2024/03/29 11:25:22;;;;;;;1.25;1.10;;;16.10;99.90;;;;;;5053989;28;20321;-59
2024/03/29 11:27:50;;;;;;;1.40;1.20;;;16.30;99.90;;;;;;5053090;28;20296;-59
2024/03/29 11:30:19;;;;;;;3.25;1.20;;;16.50;99.90;;;;;;5053546;28;20671;-57
2024/03/29 11:32:45;;;;;;;1.95;1.00;;;16.70;99.90;;;;;;5053773;28;20201;-57
2024/03/29 11:35:15;;;;;;;1.92;0.82;;;17.00;99.90;;;;;;5053460;28;20263;-58
2024/03/29 11:37:42;;;;;;;2.28;1.23;;;17.20;99.90;;;;;;5053327;28;20229;-59
2024/03/29 11:40:12;;;;;;;0.90;0.70;;;17.30;99.90;;;;;;5053537;28;20209;-60
2024/03/29 11:42:44;;;;;;;1.90;0.98;;;17.40;99.90;;;;;;5053398;28;20237;-58
2024/03/29 11:45:12;;;;;;;1.95;1.10;;;17.40;99.90;;;;;;5053627;28;20216;-59
2024/03/29 11:47:41;;;;;;;1.20;0.82;;;17.50;99.90;;;;;;5053302;28;20213;-59
2024/03/29 11:50:09;;;;;;;1.95;1.20;;;17.50;99.90;;;;;;5054271;28;20296;-59
2024/03/29 11:52:36;;;;;;;2.38;1.30;;;17.60;99.90;;;;;;5052937;28;20209;-58
2024/03/29 11:55:03;;;;;;;3.03;0.80;;;17.70;99.90;;;;;;5053037;28;20648;-58
2024/03/29 11:57:30;;;;;;;1.48;0.80;;;17.70;99.90;;;;;;5052863;28;20236;-58
2024/03/29 11:59:57;;;;;;;2.30;1.00;;;17.80;99.90;;;;;;5053363;28;20201;-59
2024/03/29 12:02:25;;;;;;;1.83;1.40;;;17.70;99.90;;;;;;5053207;28;20268;-59
2024/03/29 12:04:52;;;;;;;2.25;1.50;;;17.70;99.90;;;;;;5052851;28;20209;-59
2024/03/29 12:07:18;;;;;;;3.13;1.92;;;17.90;99.90;;;;;;5052487;28;20594;-59
2024/03/29 12:09:45;;;;;;;2.65;2.10;;;18.10;99.90;;;;;;5052776;28;20205;-59
2024/03/29 12:12:16;;;;;;;2.67;2.00;;;18.10;99.90;;;;;;5053038;28;20231;-59
2024/03/29 12:14:43;;;;;;;1.75;1.00;;;18.00;99.90;;;;;;5053237;28;20289;-59
2024/03/29 12:17:11;;;;;;;2.92;1.10;;;17.90;99.90;;;;;;5053124;28;20246;-59
2024/03/29 12:19:42;;;;;;;2.60;1.80;;;17.80;99.90;;;;;;5037160;28;20612;-65
2024/03/29 12:22:09;;;;;;;1.92;1.08;;;17.80;99.90;;;;;;5052741;28;20579;-59
2024/03/29 12:24:36;;;;;;;1.13;0.88;;;17.70;99.90;;;;;;5053174;28;20242;-59
2024/03/29 12:27:03;;;;;;;1.50;1.10;;;17.70;99.90;;;;;;5052468;28;20221;-58
2024/03/29 12:29:29;;;;;;;1.15;1.00;;;17.80;99.90;;;;;;5052503;28;20209;-60
2024/03/29 12:32:00;;;;;;;1.38;0.90;;;18.00;99.90;;;;;;5052637;28;20297;-61
2024/03/29 12:34:27;;;;;;;1.73;1.15;;;18.30;99.90;;;;;;5052434;28;20286;-61
2024/03/29 12:36:55;;;;;;;1.75;1.00;;;18.50;99.90;;;;;;5052115;28;20240;-60
2024/03/29 12:39:24;;;;;;;1.10;0.90;;;18.70;99.90;;;;;;5052197;28;20670;-60
2024/03/29 12:41:53;;;;;;;1.40;1.10;;;18.90;99.90;;;;;;5052284;28;20205;-61
2024/03/29 12:44:19;;;;;;;1.20;1.00;;;19.20;99.90;;;;;;5052267;28;20252;-59
2024/03/29 12:46:46;;;;;;;1.70;1.05;;;19.30;99.90;;;;;;5051941;28;20283;-59
2024/03/29 12:49:14;;;;;;;0.80;0.77;;;19.30;99.90;;;;;;5050657;28;20252;-60
2024/03/29 12:51:41;;;;;;;3.03;2.72;;;19.40;99.90;;;;;;5040900;28;20285;-60
2024/03/29 12:54:10;;;;;;;1.63;0.70;;;19.50;99.90;;;;;;5032881;28;20209;-59
2024/03/29 12:56:38;;;;;;;0.88;0.60;;;19.60;99.90;;;;;;5032485;28;20257;-59
2024/03/29 12:59:05;;;;;;;0.77;0.68;;;19.70;99.90;;;;;;5032325;28;20210;-59
2024/03/29 13:01:32;;;;;;;0.90;0.80;;;19.80;99.90;;;;;;5032620;28;20242;-59
2024/03/29 13:03:59;;;;;;;1.40;0.80;;;19.90;99.90;;;;;;5033003;28;20205;-59
2024/03/29 13:06:25;;;;;;;3.83;2.28;;;20.00;99.90;;;;;;5032377;28;20720;-60
2024/03/29 13:08:53;;;;;;;1.75;1.20;;;20.00;99.90;;;;;;5032356;28;20202;-60
2024/03/29 13:11:21;;;;;;;0.80;0.77;;;20.00;99.90;;;;;;5032528;28;20260;-58
2024/03/29 13:13:48;;;;;;;1.13;0.52;;;20.00;99.90;;;;;;5032306;28;20218;-59
2024/03/29 13:16:15;;;;;;;1.45;0.75;;;20.00;99.90;;;;;;5032179;28;20605;-59
2024/03/29 13:18:42;;;;;;;1.15;0.38;;;19.80;99.90;;;;;;5032423;28;20222;-59
2024/03/29 13:21:09;;;;;;;0.68;0.65;;;19.70;99.90;;;;;;5032866;28;20213;-58
2024/03/29 13:23:35;;;;;;;2.03;1.00;;;19.50;99.90;;;;;;5032186;28;20206;-59
2024/03/29 13:26:03;;;;;;;0.95;0.50;;;19.50;99.90;;;;;;5032518;28;20223;-59
2024/03/29 13:28:31;;;;;;;0.40;0.40;;;19.60;99.90;;;;;;5032038;28;20589;-59
2024/03/29 13:30:58;;;;;;;1.80;0.73;;;19.60;99.90;;;;;;5032335;28;20207;-58
2024/03/29 13:33:24;;;;;;;0.55;0.55;;;19.70;99.90;;;;;;5032188;28;20727;-59
2024/03/29 13:35:54;;;;;;;0.55;0.55;;;19.90;99.90;;;;;;5032547;28;20280;-59
2024/03/29 13:38:23;;;;;;;2.22;0.80;;;20.00;99.90;;;;;;5032296;28;20316;-59
2024/03/29 13:40:50;;;;;;;1.00;0.70;;;19.80;99.90;;;;;;5032428;28;20234;-59
2024/03/29 13:43:17;;;;;;;0.50;0.47;;;19.50;99.90;;;;;;5032309;28;20238;-57
2024/03/29 13:45:45;;;;;;;2.60;0.80;;;19.10;99.90;;;;;;5032159;28;20325;-58
2024/03/29 13:48:11;;;;;;;1.15;0.70;;;18.90;99.90;;;;;;5032260;28;20206;-58
2024/03/29 13:50:38;;;;;;;1.42;0.90;;;18.50;99.90;;;;;;5032495;28;20217;-58
2024/03/29 13:53:05;;;;;;;1.15;0.80;;;18.30;99.90;;;;;;5031979;28;20210;-58
2024/03/29 13:55:31;;;;;;;2.47;0.70;;;18.00;99.90;;;;;;5032218;28;20226;-58
2024/03/29 13:57:58;;;;;;;1.60;0.70;;;17.90;99.90;;;;;;5031364;28;20703;-57
2024/03/29 14:00:25;;;;;;;3.15;0.80;;;17.90;99.90;;;;;;5031890;28;20217;-58
2024/03/29 14:02:53;;;;;;;1.17;0.90;;;17.90;99.90;;;;;;5032369;28;20210;-58
2024/03/29 14:05:20;;;;;;;1.05;0.70;;;18.10;99.90;;;;;;5032974;28;20242;-58
2024/03/29 14:07:48;;;;;;;1.13;0.93;;;18.20;99.90;;;;;;5032126;28;20632;-58
2024/03/29 14:10:15;;;;;;;1.35;0.65;;;18.30;99.90;;;;;;5033404;28;20218;-58
2024/03/29 14:12:41;;;;;;;1.02;0.55;;;18.40;99.90;;;;;;5035738;28;20206;-58
2024/03/29 14:15:09;;;;;;;1.42;0.80;;;18.40;99.90;;;;;;5035983;28;20654;-59
2024/03/29 14:17:35;;;;;;;1.08;0.70;;;18.50;99.90;;;;;;5035293;28;20321;-59
2024/03/29 14:20:04;;;;;;;0.68;0.50;;;18.50;99.90;;;;;;5035464;28;20212;-58
2024/03/29 14:22:34;;;;;;;0.60;0.57;;;18.50;99.90;;;;;;5035390;28;20210;-58
2024/03/29 14:25:02;;;;;;;1.33;0.70;;;18.60;99.90;;;;;;5035283;28;20612;-59
2024/03/29 14:27:30;;;;;;;0.75;0.60;;;18.80;99.90;;;;;;5035369;28;20266;-59
2024/03/29 14:29:56;;;;;;;1.08;0.80;;;18.90;99.90;;;;;;5035494;28;20217;-59
2024/03/29 14:32:23;;;;;;;0.93;0.60;;;19.00;99.90;;;;;;5035207;28;20214;-59
2024/03/29 14:34:50;;;;;;;1.10;0.85;;;19.10;99.90;;;;;;5035606;28;20691;-59
2024/03/29 14:37:18;;;;;;;1.33;0.73;;;19.20;99.90;;;;;;5035002;28;20280;-59
2024/03/29 14:39:45;;;;;;;1.48;0.90;;;19.30;99.90;;;;;;5035385;28;20256;-59
2024/03/29 14:42:14;;;;;;;0.50;0.50;;;19.40;99.90;;;;;;5035390;28;20213;-59
2024/03/29 14:44:41;;;;;;;0.80;0.80;;;19.50;99.90;;;;;;5035214;28;20268;-59